Grand Teton Natl Park, Wyoming
Current Conditions -  °F | °C
As of 7:53 AM on Friday 19 Dec 2014 (Local Time) from KJAC Reporting Station
Scattered Clouds Scattered Clouds  
Wind Chill: 27°   Ceiling: Unl
Heat Index: 27°   Visibility: 10mi
Dew Point: 25°   Wind: 3mph
Humidity: 93%   Direction: 190°S
Pressure: 30.09"   Gusts: NA
Location:  43.72°N, 110.8°W
Report Text: KJAC 191453Z 19003KT 10SM SCT037 SCT047 M03/M04 A3009
Loading
Personal Weather Stations






























Interactive Weather Map New forecast layout! Learn more

10-Day Weather Forecast

Advertisements
Track Severe Weather on mobile